sensor_id;sensor_type;location;lat;lon;timestamp;temperature;humidity
9662;DHT22;24982;52.344;12.990;2023-11-19T00:01:42;8.90;99.90
9662;DHT22;24982;52.344;12.990;2023-11-19T00:04:44;9.10;99.90
9662;DHT22;24982;52.344;12.990;2023-11-19T00:07:46;8.90;99.90
9662;DHT22;24982;52.344;12.990;2023-11-19T00:10:48;8.90;99.90
9662;DHT22;24982;52.344;12.990;2023-11-19T00:13:52;8.80;99.90
9662;DHT22;24982;52.344;12.990;2023-11-19T00:16:54;8.70;99.90
9662;DHT22;24982;52.344;12.990;2023-11-19T00:19:56;8.70;99.90
9662;DHT22;24982;52.344;12.990;2023-11-19T00:22:58;8.60;99.90
9662;DHT22;24982;52.344;12.990;2023-11-19T00:26:02;8.70;99.90
9662;DHT22;24982;52.344;12.990;2023-11-19T00:29:08;8.60;99.90
9662;DHT22;24982;52.344;12.990;2023-11-19T00:32:10;8.80;99.90
9662;DHT22;24982;52.344;12.990;2023-11-19T00:35:12;8.70;99.90
9662;DHT22;24982;52.344;12.990;2023-11-19T00:38:14;8.70;99.90
9662;DHT22;24982;52.344;12.990;2023-11-19T00:41:16;8.60;99.90
9662;DHT22;24982;52.344;12.990;2023-11-19T00:44:20;8.60;99.90
9662;DHT22;24982;52.344;12.990;2023-11-19T00:47:22;8.70;99.90
9662;DHT22;24982;52.344;12.990;2023-11-19T00:50:24;8.70;99.90
9662;DHT22;24982;52.344;12.990;2023-11-19T00:53:26;8.70;99.90
9662;DHT22;24982;52.344;12.990;2023-11-19T00:56:28;8.70;99.90
9662;DHT22;24982;52.344;12.990;2023-11-19T00:59:31;8.70;99.90
9662;DHT22;24982;52.344;12.990;2023-11-19T01:02:33;8.80;99.90
9662;DHT22;24982;52.344;12.990;2023-11-19T01:05:36;8.70;99.90
9662;DHT22;24982;52.344;12.990;2023-11-19T01:08:38;8.80;99.90
9662;DHT22;24982;52.344;12.990;2023-11-19T01:11:40;8.80;99.90
9662;DHT22;24982;52.344;12.990;2023-11-19T01:14:43;8.80;99.90
9662;DHT22;24982;52.344;12.990;2023-11-19T01:17:45;8.70;99.90
9662;DHT22;24982;52.344;12.990;2023-11-19T01:20:47;8.70;99.90
9662;DHT22;24982;52.344;12.990;2023-11-19T01:23:49;8.60;99.90
9662;DHT22;24982;52.344;12.990;2023-11-19T01:26:51;8.70;99.90
9662;DHT22;24982;52.344;12.990;2023-11-19T01:29:55;8.70;99.90
9662;DHT22;24982;52.344;12.990;2023-11-19T01:32:57;8.80;99.90
9662;DHT22;24982;52.344;12.990;2023-11-19T01:35:59;8.80;99.90
9662;DHT22;24982;52.344;12.990;2023-11-19T01:39:01;8.70;99.90
9662;DHT22;24982;52.344;12.990;2023-11-19T01:42:05;8.70;99.90
9662;DHT22;24982;52.344;12.990;2023-11-19T01:45:09;8.60;99.90
9662;DHT22;24982;52.344;12.990;2023-11-19T01:48:15;8.70;99.90
9662;DHT22;24982;52.344;12.990;2023-11-19T01:51:17;8.70;99.90
9662;DHT22;24982;52.344;12.990;2023-11-19T01:54:19;8.80;99.90
9662;DHT22;24982;52.344;12.990;2023-11-19T01:57:22;8.90;99.90
9662;DHT22;24982;52.344;12.990;2023-11-19T02:00:26;8.80;99.90
9662;DHT22;24982;52.344;12.990;2023-11-19T02:03:28;8.80;99.90
9662;DHT22;24982;52.344;12.990;2023-11-19T02:06:32;8.80;99.90
9662;DHT22;24982;52.344;12.990;2023-11-19T02:09:35;8.90;99.90
9662;DHT22;24982;52.344;12.990;2023-11-19T02:12:38;8.80;99.90
9662;DHT22;24982;52.344;12.990;2023-11-19T02:15:44;8.80;99.90
9662;DHT22;24982;52.344;12.990;2023-11-19T02:18:46;8.80;99.90
9662;DHT22;24982;52.344;12.990;2023-11-19T02:21:49;8.90;99.90
9662;DHT22;24982;52.344;12.990;2023-11-19T02:24:53;8.90;99.90
9662;DHT22;24982;52.344;12.990;2023-11-19T02:28:00;8.90;99.90
9662;DHT22;24982;52.344;12.990;2023-11-19T02:31:02;8.90;99.90
9662;DHT22;24982;52.344;12.990;2023-11-19T02:34:05;8.80;99.90
9662;DHT22;24982;52.344;12.990;2023-11-19T02:37:07;8.70;99.90
9662;DHT22;24982;52.344;12.990;2023-11-19T02:40:11;8.70;99.90
9662;DHT22;24982;52.344;12.990;2023-11-19T02:43:15;8.60;99.90
9662;DHT22;24982;52.344;12.990;2023-11-19T02:46:18;8.50;99.90
9662;DHT22;24982;52.344;12.990;2023-11-19T02:49:20;8.50;99.90
9662;DHT22;24982;52.344;12.990;2023-11-19T02:52:22;8.40;99.90
9662;DHT22;24982;52.344;12.990;2023-11-19T02:55:25;8.40;99.90
9662;DHT22;24982;52.344;12.990;2023-11-19T02:58:32;8.40;99.90
9662;DHT22;24982;52.344;12.990;2023-11-19T03:01:35;8.40;99.90
9662;DHT22;24982;52.344;12.990;2023-11-19T03:04:37;8.50;99.90
9662;DHT22;24982;52.344;12.990;2023-11-19T03:07:41;8.40;99.90
9662;DHT22;24982;52.344;12.990;2023-11-19T03:10:44;8.30;99.90
9662;DHT22;24982;52.344;12.990;2023-11-19T03:13:47;8.30;99.90
9662;DHT22;24982;52.344;12.990;2023-11-19T03:16:49;8.20;99.90
9662;DHT22;24982;52.344;12.990;2023-11-19T03:19:51;8.20;99.90
9662;DHT22;24982;52.344;12.990;2023-11-19T03:22:53;8.20;99.90
9662;DHT22;24982;52.344;12.990;2023-11-19T03:25:56;8.30;99.90
9662;DHT22;24982;52.344;12.990;2023-11-19T03:29:00;8.20;99.90
9662;DHT22;24982;52.344;12.990;2023-11-19T03:32:02;8.30;99.90
9662;DHT22;24982;52.344;12.990;2023-11-19T03:35:05;8.30;99.90
9662;DHT22;24982;52.344;12.990;2023-11-19T03:38:08;8.20;99.90
9662;DHT22;24982;52.344;12.990;2023-11-19T03:41:10;8.30;99.90
9662;DHT22;24982;52.344;12.990;2023-11-19T03:44:14;8.20;99.90
9662;DHT22;24982;52.344;12.990;2023-11-19T03:47:17;8.30;99.90
9662;DHT22;24982;52.344;12.990;2023-11-19T03:50:19;8.30;99.90
9662;DHT22;24982;52.344;12.990;2023-11-19T03:53:21;8.30;99.90
9662;DHT22;24982;52.344;12.990;2023-11-19T03:56:24;8.20;99.90
9662;DHT22;24982;52.344;12.990;2023-11-19T03:59:29;8.10;99.90
9662;DHT22;24982;52.344;12.990;2023-11-19T04:02:31;8.00;99.90
9662;DHT22;24982;52.344;12.990;2023-11-19T04:05:33;8.00;99.90
9662;DHT22;24982;52.344;12.990;2023-11-19T04:08:35;7.90;99.90
9662;DHT22;24982;52.344;12.990;2023-11-19T04:11:37;7.90;99.90
9662;DHT22;24982;52.344;12.990;2023-11-19T04:14:42;7.90;99.90
9662;DHT22;24982;52.344;12.990;2023-11-19T04:17:44;8.00;99.90
9662;DHT22;24982;52.344;12.990;2023-11-19T04:20:46;8.00;99.90
9662;DHT22;24982;52.344;12.990;2023-11-19T04:23:49;7.90;99.90
9662;DHT22;24982;52.344;12.990;2023-11-19T04:26:51;7.90;99.90
9662;DHT22;24982;52.344;12.990;2023-11-19T04:29:54;7.90;99.90
9662;DHT22;24982;52.344;12.990;2023-11-19T04:32:57;7.90;99.90
9662;DHT22;24982;52.344;12.990;2023-11-19T04:35:59;8.10;99.90
9662;DHT22;24982;52.344;12.990;2023-11-19T04:39:01;8.10;99.90
9662;DHT22;24982;52.344;12.990;2023-11-19T04:42:03;8.00;99.90
9662;DHT22;24982;52.344;12.990;2023-11-19T04:45:09;8.00;99.90
9662;DHT22;24982;52.344;12.990;2023-11-19T04:48:11;7.90;99.90
9662;DHT22;24982;52.344;12.990;2023-11-19T04:51:14;8.00;99.90
9662;DHT22;24982;52.344;12.990;2023-11-19T04:54:16;8.10;99.90
9662;DHT22;24982;52.344;12.990;2023-11-19T04:57:18;8.20;99.90
9662;DHT22;24982;52.344;12.990;2023-11-19T05:00:21;8.30;99.90
9662;DHT22;24982;52.344;12.990;2023-11-19T05:03:24;8.40;99.90
9662;DHT22;24982;52.344;12.990;2023-11-19T05:06:26;8.50;99.90
9662;DHT22;24982;52.344;12.990;2023-11-19T05:09:31;8.50;99.90
9662;DHT22;24982;52.344;12.990;2023-11-19T05:12:33;8.50;99.90
9662;DHT22;24982;52.344;12.990;2023-11-19T05:15:36;8.40;99.90
9662;DHT22;24982;52.344;12.990;2023-11-19T05:18:39;8.50;99.90
9662;DHT22;24982;52.344;12.990;2023-11-19T05:21:41;8.60;99.90
9662;DHT22;24982;52.344;12.990;2023-11-19T05:24:44;8.50;99.90
9662;DHT22;24982;52.344;12.990;2023-11-19T05:27:46;8.50;99.90
9662;DHT22;24982;52.344;12.990;2023-11-19T05:30:49;8.60;99.90
9662;DHT22;24982;52.344;12.990;2023-11-19T05:33:51;8.50;99.90
9662;DHT22;24982;52.344;12.990;2023-11-19T05:36:53;8.50;99.90
9662;DHT22;24982;52.344;12.990;2023-11-19T05:39:55;8.50;99.90
9662;DHT22;24982;52.344;12.990;2023-11-19T05:42:57;8.50;99.90
9662;DHT22;24982;52.344;12.990;2023-11-19T05:46:00;8.60;99.90
9662;DHT22;24982;52.344;12.990;2023-11-19T05:49:03;8.60;99.90
9662;DHT22;24982;52.344;12.990;2023-11-19T05:52:05;8.60;99.90
9662;DHT22;24982;52.344;12.990;2023-11-19T05:55:08;8.60;99.90
9662;DHT22;24982;52.344;12.990;2023-11-19T05:58:11;8.50;99.90
9662;DHT22;24982;52.344;12.990;2023-11-19T06:01:15;8.50;99.90
9662;DHT22;24982;52.344;12.990;2023-11-19T06:04:17;8.50;99.90
9662;DHT22;24982;52.344;12.990;2023-11-19T06:07:19;8.50;99.90
9662;DHT22;24982;52.344;12.990;2023-11-19T06:10:22;8.50;99.90
9662;DHT22;24982;52.344;12.990;2023-11-19T06:13:29;8.40;99.90
9662;DHT22;24982;52.344;12.990;2023-11-19T06:16:33;8.70;99.90
9662;DHT22;24982;52.344;12.990;2023-11-19T06:19:37;8.60;99.90
9662;DHT22;24982;52.344;12.990;2023-11-19T06:22:39;8.50;99.90
9662;DHT22;24982;52.344;12.990;2023-11-19T06:25:43;8.50;99.90
9662;DHT22;24982;52.344;12.990;2023-11-19T06:28:44;8.60;99.90
9662;DHT22;24982;52.344;12.990;2023-11-19T06:31:48;8.50;99.90
9662;DHT22;24982;52.344;12.990;2023-11-19T06:34:50;8.60;99.90
9662;DHT22;24982;52.344;12.990;2023-11-19T06:37:52;8.20;99.90
9662;DHT22;24982;52.344;12.990;2023-11-19T06:40:54;8.40;99.90
9662;DHT22;24982;52.344;12.990;2023-11-19T06:43:56;8.40;99.90
9662;DHT22;24982;52.344;12.990;2023-11-19T06:46:59;8.40;99.90
9662;DHT22;24982;52.344;12.990;2023-11-19T06:50:01;8.40;99.90
9662;DHT22;24982;52.344;12.990;2023-11-19T06:53:06;8.40;99.90
9662;DHT22;24982;52.344;12.990;2023-11-19T06:56:18;8.40;99.90
9662;DHT22;24982;52.344;12.990;2023-11-19T06:59:20;8.50;99.90
9662;DHT22;24982;52.344;12.990;2023-11-19T07:02:24;8.40;99.90
9662;DHT22;24982;52.344;12.990;2023-11-19T07:05:26;8.50;99.90
9662;DHT22;24982;52.344;12.990;2023-11-19T07:08:28;8.40;99.90
9662;DHT22;24982;52.344;12.990;2023-11-19T07:11:30;8.40;99.90
9662;DHT22;24982;52.344;12.990;2023-11-19T07:14:33;8.40;99.90
9662;DHT22;24982;52.344;12.990;2023-11-19T07:17:36;8.40;99.90
9662;DHT22;24982;52.344;12.990;2023-11-19T07:20:42;8.50;99.90
9662;DHT22;24982;52.344;12.990;2023-11-19T07:23:47;8.50;99.90
9662;DHT22;24982;52.344;12.990;2023-11-19T07:26:50;8.40;99.90
9662;DHT22;24982;52.344;12.990;2023-11-19T07:29:52;8.50;99.90
9662;DHT22;24982;52.344;12.990;2023-11-19T07:32:56;8.50;99.90
9662;DHT22;24982;52.344;12.990;2023-11-19T07:35:58;8.50;99.90
9662;DHT22;24982;52.344;12.990;2023-11-19T07:39:00;8.50;99.90
9662;DHT22;24982;52.344;12.990;2023-11-19T07:42:03;8.50;99.90
9662;DHT22;24982;52.344;12.990;2023-11-19T07:45:06;8.50;99.90
9662;DHT22;24982;52.344;12.990;2023-11-19T07:48:09;8.60;99.90
9662;DHT22;24982;52.344;12.990;2023-11-19T07:51:15;8.50;99.90
9662;DHT22;24982;52.344;12.990;2023-11-19T07:54:17;8.80;99.90
9662;DHT22;24982;52.344;12.990;2023-11-19T07:57:19;8.70;99.90
9662;DHT22;24982;52.344;12.990;2023-11-19T08:00:21;8.80;99.90
9662;DHT22;24982;52.344;12.990;2023-11-19T08:03:24;8.90;99.90
9662;DHT22;24982;52.344;12.990;2023-11-19T08:06:26;8.90;99.90
9662;DHT22;24982;52.344;12.990;2023-11-19T08:09:28;8.90;99.90
9662;DHT22;24982;52.344;12.990;2023-11-19T08:12:31;8.90;99.90
9662;DHT22;24982;52.344;12.990;2023-11-19T08:15:35;9.00;99.90
9662;DHT22;24982;52.344;12.990;2023-11-19T08:18:40;9.10;99.90
9662;DHT22;24982;52.344;12.990;2023-11-19T08:21:44;9.10;99.90
9662;DHT22;24982;52.344;12.990;2023-11-19T08:24:46;9.00;99.90
9662;DHT22;24982;52.344;12.990;2023-11-19T08:27:49;8.90;99.90
9662;DHT22;24982;52.344;12.990;2023-11-19T08:30:50;9.10;99.90
9662;DHT22;24982;52.344;12.990;2023-11-19T08:33:54;9.10;99.90
9662;DHT22;24982;52.344;12.990;2023-11-19T08:36:56;9.30;99.90
9662;DHT22;24982;52.344;12.990;2023-11-19T08:39:58;9.50;99.90
9662;DHT22;24982;52.344;12.990;2023-11-19T08:43:00;9.50;99.90
9662;DHT22;24982;52.344;12.990;2023-11-19T08:46:02;9.50;99.90
9662;DHT22;24982;52.344;12.990;2023-11-19T08:49:06;9.50;99.90
9662;DHT22;24982;52.344;12.990;2023-11-19T08:52:09;9.50;99.90
9662;DHT22;24982;52.344;12.990;2023-11-19T08:55:11;9.40;99.90
9662;DHT22;24982;52.344;12.990;2023-11-19T08:58:14;9.40;99.90
9662;DHT22;24982;52.344;12.990;2023-11-19T09:01:16;9.30;99.90
9662;DHT22;24982;52.344;12.990;2023-11-19T09:04:19;9.30;99.90
9662;DHT22;24982;52.344;12.990;2023-11-19T09:07:22;9.40;99.90
9662;DHT22;24982;52.344;12.990;2023-11-19T09:10:25;9.50;99.90
9662;DHT22;24982;52.344;12.990;2023-11-19T09:13:27;9.60;99.90
9662;DHT22;24982;52.344;12.990;2023-11-19T09:16:29;9.50;99.90
9662;DHT22;24982;52.344;12.990;2023-11-19T09:19:33;9.70;99.90
9662;DHT22;24982;52.344;12.990;2023-11-19T09:22:36;9.60;99.90
9662;DHT22;24982;52.344;12.990;2023-11-19T09:25:38;9.70;99.90
9662;DHT22;24982;52.344;12.990;2023-11-19T09:28:40;9.70;99.90
9662;DHT22;24982;52.344;12.990;2023-11-19T09:31:42;9.70;99.90
9662;DHT22;24982;52.344;12.990;2023-11-19T09:34:45;9.70;99.90
9662;DHT22;24982;52.344;12.990;2023-11-19T09:37:47;9.80;99.90
9662;DHT22;24982;52.344;12.990;2023-11-19T09:40:49;9.80;99.90
9662;DHT22;24982;52.344;12.990;2023-11-19T09:46:53;10.00;99.90
9662;DHT22;24982;52.344;12.990;2023-11-19T09:49:57;10.10;99.90
9662;DHT22;24982;52.344;12.990;2023-11-19T09:52:59;10.10;99.90
9662;DHT22;24982;52.344;12.990;2023-11-19T09:56:02;10.20;99.90
9662;DHT22;24982;52.344;12.990;2023-11-19T09:59:05;10.20;99.90
9662;DHT22;24982;52.344;12.990;2023-11-19T10:02:07;10.20;99.90
9662;DHT22;24982;52.344;12.990;2023-11-19T10:05:11;10.20;99.90
9662;DHT22;24982;52.344;12.990;2023-11-19T10:11:18;10.40;99.90
9662;DHT22;24982;52.344;12.990;2023-11-19T10:14:23;10.30;99.90
9662;DHT22;24982;52.344;12.990;2023-11-19T10:17:28;10.20;99.90
9662;DHT22;24982;52.344;12.990;2023-11-19T10:20:36;10.40;99.90
9662;DHT22;24982;52.344;12.990;2023-11-19T10:23:48;10.50;99.90
9662;DHT22;24982;52.344;12.990;2023-11-19T10:29:53;10.70;99.90
9662;DHT22;24982;52.344;12.990;2023-11-19T10:39:12;10.80;99.90
9662;DHT22;24982;52.344;12.990;2023-11-19T10:42:15;10.90;99.90
9662;DHT22;24982;52.344;12.990;2023-11-19T10:45:24;10.80;99.90
9662;DHT22;24982;52.344;12.990;2023-11-19T10:48:26;10.80;99.90
9662;DHT22;24982;52.344;12.990;2023-11-19T10:51:29;10.80;99.90
9662;DHT22;24982;52.344;12.990;2023-11-19T10:54:34;10.80;99.90
9662;DHT22;24982;52.344;12.990;2023-11-19T10:57:37;10.70;99.90
9662;DHT22;24982;52.344;12.990;2023-11-19T16:05:21;11.40;99.90
